createdAt,value
2023-05-01T00:01:41.714Z,42.10
2023-05-01T00:04:08.722Z,42.10
2023-05-01T00:06:35.335Z,42.00
2023-05-01T00:09:02.740Z,42.00
2023-05-01T00:11:29.180Z,42.00
2023-05-01T00:13:55.972Z,41.70
2023-05-01T00:16:22.773Z,41.60
2023-05-01T00:18:49.257Z,41.40
2023-05-01T00:21:16.157Z,42.00
2023-05-01T00:23:42.603Z,41.10
2023-05-01T00:26:09.423Z,41.10
2023-05-01T00:28:35.850Z,41.20
2023-05-01T00:31:02.669Z,42.00
2023-05-01T00:33:29.116Z,42.90
2023-05-01T00:35:55.930Z,41.50
2023-05-01T00:38:22.392Z,40.80
2023-05-01T00:40:49.294Z,42.30
2023-05-01T00:43:15.726Z,43.70
2023-05-01T00:45:45.274Z,44.30
2023-05-01T00:48:12.746Z,43.70
2023-05-01T00:50:39.701Z,44.40
2023-05-01T00:53:06.606Z,45.10
2023-05-01T00:55:33.133Z,43.80
2023-05-01T00:58:01.060Z,44.80
2023-05-01T01:00:27.510Z,44.50
2023-05-01T01:02:54.318Z,44.30
2023-05-01T01:05:24.396Z,43.20
2023-05-01T01:08:10.511Z,43.20
2023-05-01T01:11:00.717Z,42.10
2023-05-01T01:13:41.568Z,41.40
2023-05-01T01:16:43.478Z,41.40
2023-05-01T01:19:32.925Z,41.60
2023-05-01T01:22:04.246Z,42.00
2023-05-01T01:24:58.872Z,42.00
2023-05-01T01:27:44.489Z,42.90
2023-05-01T01:30:53.838Z,45.30
2023-05-01T01:33:40.405Z,45.00
2023-05-01T01:36:12.130Z,44.20
2023-05-01T01:38:51.634Z,43.50
2023-05-01T01:41:24.015Z,43.30
2023-05-01T01:44:00.879Z,43.40
2023-05-01T01:46:28.225Z,43.30
2023-05-01T01:48:56.026Z,43.20
2023-05-01T01:51:25.662Z,43.20
2023-05-01T01:53:55.036Z,43.10
2023-05-01T01:56:24.594Z,43.00
2023-05-01T01:58:52.573Z,43.00
2023-05-01T02:01:20.916Z,43.20
2023-05-01T02:03:48.873Z,44.00
2023-05-01T02:06:17.225Z,46.10
2023-05-01T02:08:47.430Z,45.70
2023-05-01T02:11:15.433Z,46.40
2023-05-01T02:13:44.443Z,46.90
2023-05-01T02:16:12.852Z,45.10
2023-05-01T02:18:40.628Z,44.20
2023-05-01T02:21:07.723Z,45.60
2023-05-01T02:23:34.722Z,47.30
2023-05-01T02:26:03.751Z,45.50
2023-05-01T02:28:31.618Z,44.60
2023-05-01T02:30:59.414Z,44.20
2023-05-01T02:33:25.931Z,44.20
2023-05-01T02:35:52.401Z,44.00
2023-05-01T02:38:19.323Z,44.40
2023-05-01T02:40:51.705Z,43.80
2023-05-01T02:43:21.073Z,43.80
2023-05-01T02:45:49.255Z,44.30
2023-05-01T02:48:21.082Z,43.80
2023-05-01T02:50:49.728Z,44.00
2023-05-01T02:53:17.001Z,43.90
2023-05-01T02:55:43.901Z,44.00
2023-05-01T02:58:16.500Z,44.20
2023-05-01T03:00:43.010Z,44.20
2023-05-01T03:03:09.939Z,44.40
2023-05-01T03:05:36.813Z,44.50
2023-05-01T03:08:03.362Z,44.50
2023-05-01T03:10:30.170Z,44.40
2023-05-01T03:12:56.618Z,44.40
2023-05-01T03:15:23.590Z,44.20
2023-05-01T03:17:50.164Z,44.40
2023-05-01T03:20:17.050Z,44.20
2023-05-01T03:22:44.080Z,44.30
2023-05-01T03:25:10.993Z,44.20
2023-05-01T03:27:37.831Z,44.10
2023-05-01T03:30:05.021Z,44.20
2023-05-01T03:32:31.524Z,44.40
2023-05-01T03:34:58.417Z,44.90
2023-05-01T03:37:25.249Z,44.70
2023-05-01T03:39:52.030Z,46.80
2023-05-01T03:42:18.884Z,46.20
2023-05-01T03:44:46.116Z,45.50
2023-05-01T03:47:12.906Z,45.50
2023-05-01T03:49:39.343Z,46.40
2023-05-01T03:52:06.099Z,45.70
2023-05-01T03:54:32.556Z,46.00
2023-05-01T03:56:59.417Z,46.60
2023-05-01T03:59:25.936Z,48.20
2023-05-01T04:01:52.476Z,48.60
2023-05-01T04:04:19.350Z,49.10
2023-05-01T04:06:46.006Z,49.20
2023-05-01T04:09:12.948Z,49.90
2023-05-01T04:11:39.388Z,49.20
2023-05-01T04:14:06.206Z,49.80
2023-05-01T04:16:33.297Z,50.70
2023-05-01T04:19:00.155Z,50.70
2023-05-01T04:21:26.913Z,50.60
2023-05-01T04:23:53.654Z,50.90
2023-05-01T04:26:20.418Z,50.50
2023-05-01T04:28:47.214Z,50.50
2023-05-01T04:31:14.091Z,50.10
2023-05-01T04:33:40.528Z,49.90
2023-05-01T04:36:07.461Z,49.80
2023-05-01T04:38:33.921Z,50.60
2023-05-01T04:41:00.795Z,50.00
2023-05-01T04:43:27.269Z,49.50
2023-05-01T04:45:54.710Z,48.60
2023-05-01T04:48:21.314Z,48.10
2023-05-01T04:50:48.007Z,48.00
2023-05-01T04:53:14.458Z,48.00
2023-05-01T04:55:41.371Z,48.00
2023-05-01T04:58:08.398Z,48.20
2023-05-01T05:00:34.852Z,50.30
2023-05-01T05:03:01.828Z,50.20
2023-05-01T05:05:28.356Z,48.70
2023-05-01T05:07:54.810Z,49.10
2023-05-01T05:10:21.290Z,49.50
2023-05-01T05:12:48.030Z,49.50
2023-05-01T05:15:14.591Z,48.00
2023-05-01T05:17:41.571Z,48.00
2023-05-01T05:20:08.835Z,48.10
2023-05-01T05:22:38.331Z,47.90
2023-05-01T05:25:05.536Z,47.80
2023-05-01T05:27:32.131Z,47.20
2023-05-01T05:29:58.892Z,47.20
2023-05-01T05:32:25.410Z,46.30
2023-05-01T05:34:51.889Z,45.70
2023-05-01T05:37:18.779Z,45.80
2023-05-01T05:39:45.240Z,45.10
2023-05-01T05:42:11.696Z,45.30
2023-05-01T05:44:38.131Z,44.50
2023-05-01T05:47:05.016Z,43.40
2023-05-01T05:49:31.465Z,43.70
2023-05-01T05:51:57.917Z,43.70
2023-05-01T05:54:24.851Z,42.90
2023-05-01T05:56:51.698Z,41.30
2023-05-01T05:59:18.157Z,40.50
2023-05-01T06:01:44.604Z,41.00
2023-05-01T06:04:11.441Z,39.40
2023-05-01T06:06:38.298Z,38.30
2023-05-01T06:09:05.166Z,37.80
2023-05-01T06:11:32.031Z,38.30
2023-05-01T06:13:58.550Z,38.40
2023-05-01T06:16:25.137Z,38.30
2023-05-01T06:18:52.228Z,38.70
2023-05-01T06:21:18.682Z,37.90
2023-05-01T06:23:45.514Z,37.60
2023-05-01T06:26:11.949Z,37.60
2023-05-01T06:28:38.893Z,36.40
2023-05-01T06:31:05.456Z,37.80
2023-05-01T06:33:32.318Z,36.90
2023-05-01T06:35:58.757Z,36.70
2023-05-01T06:38:27.086Z,36.30
2023-05-01T06:40:54.011Z,34.60
2023-05-01T06:43:20.857Z,33.50
2023-05-01T06:45:47.330Z,33.70
2023-05-01T06:48:13.966Z,34.20
2023-05-01T06:50:40.815Z,34.00
2023-05-01T06:53:07.338Z,33.20
2023-05-01T06:55:35.273Z,32.70
2023-05-01T06:58:04.861Z,32.40
2023-05-01T07:00:39.402Z,32.30
2023-05-01T07:03:05.955Z,32.60
2023-05-01T07:05:32.782Z,32.10
2023-05-01T07:08:01.627Z,31.30
2023-05-01T07:10:28.464Z,32.00
2023-05-01T07:12:55.292Z,31.80
2023-05-01T07:15:21.767Z,31.60
2023-05-01T07:17:48.260Z,30.10
2023-05-01T07:20:14.820Z,30.10
2023-05-01T07:22:41.290Z,29.90
2023-05-01T07:25:08.625Z,29.00
2023-05-01T07:27:35.443Z,27.90
2023-05-01T07:30:03.424Z,27.80
2023-05-01T07:32:30.231Z,27.40
2023-05-01T07:34:56.731Z,27.50
2023-05-01T07:37:23.565Z,28.20
2023-05-01T07:39:50.016Z,27.40
2023-05-01T07:42:16.851Z,27.20
2023-05-01T07:44:43.289Z,26.90
2023-05-01T07:47:10.146Z,26.60
2023-05-01T07:49:37.923Z,27.10
2023-05-01T07:52:05.634Z,27.60
2023-05-01T07:54:32.452Z,27.60
2023-05-01T07:56:59.186Z,27.60
2023-05-01T07:59:25.911Z,27.60
2023-05-01T08:01:52.448Z,27.60
2023-05-01T08:04:19.104Z,27.70
2023-05-01T08:06:45.797Z,27.50
2023-05-01T08:09:12.663Z,26.90
2023-05-01T08:11:39.142Z,27.00
2023-05-01T08:14:05.903Z,27.60
2023-05-01T08:16:35.100Z,26.60
2023-05-01T08:19:01.614Z,26.10
2023-05-01T08:21:28.074Z,25.40
2023-05-01T08:23:55.653Z,24.90
2023-05-01T08:26:22.978Z,23.10
2023-05-01T08:28:49.444Z,23.40
2023-05-01T08:31:16.312Z,22.80
2023-05-01T08:33:42.881Z,23.50
2023-05-01T08:36:10.228Z,22.90
2023-05-01T08:38:37.576Z,21.00
2023-05-01T08:41:04.780Z,21.50
2023-05-01T08:43:31.732Z,21.50
2023-05-01T08:46:01.532Z,22.20
2023-05-01T08:48:29.634Z,22.40
2023-05-01T08:50:57.106Z,22.10
2023-05-01T08:53:25.577Z,22.20
2023-05-01T08:55:53.611Z,22.30
2023-05-01T08:58:24.393Z,22.50
2023-05-01T09:00:51.551Z,22.00
2023-05-01T09:03:18.936Z,22.00
2023-05-01T09:05:46.405Z,22.10
2023-05-01T09:08:12.908Z,21.50
2023-05-01T09:10:44.458Z,22.30
2023-05-01T09:13:11.036Z,23.00
2023-05-01T09:15:38.025Z,21.70
2023-05-01T09:18:04.578Z,20.60
2023-05-01T09:20:31.698Z,20.20
2023-05-01T09:22:59.070Z,19.10
2023-05-01T09:25:25.563Z,19.20
2023-05-01T09:27:52.380Z,19.30
2023-05-01T09:30:38.372Z,18.30
2023-05-01T09:33:22.796Z,19.10
2023-05-01T09:35:50.024Z,19.20
2023-05-01T09:38:26.206Z,17.70
2023-05-01T09:41:03.624Z,17.60
2023-05-01T09:43:30.667Z,17.30
2023-05-01T09:46:06.390Z,16.60
2023-05-01T09:48:34.993Z,16.50
2023-05-01T09:51:23.306Z,16.70
2023-05-01T09:53:50.142Z,16.60
2023-05-01T09:56:16.961Z,17.00
2023-05-01T09:58:43.422Z,17.30
2023-05-01T10:01:09.912Z,18.20
2023-05-01T10:03:37.477Z,17.80
2023-05-01T10:06:04.699Z,17.90
2023-05-01T10:08:47.838Z,17.70
2023-05-01T10:11:14.479Z,19.00
2023-05-01T10:13:41.439Z,19.80
2023-05-01T10:16:27.528Z,17.30
2023-05-01T10:18:55.866Z,17.90
2023-05-01T10:21:22.426Z,17.50
2023-05-01T10:23:49.231Z,17.90
2023-05-01T10:26:17.948Z,18.10
2023-05-01T10:28:46.134Z,17.10
2023-05-01T10:31:13.075Z,18.10
2023-05-01T10:33:41.140Z,17.40
2023-05-01T10:36:13.350Z,19.00
2023-05-01T10:38:40.431Z,17.80
2023-05-01T10:41:07.185Z,19.50
2023-05-01T10:43:33.622Z,19.20
2023-05-01T10:46:17.991Z,20.20
2023-05-01T10:48:44.806Z,19.70
2023-05-01T10:51:18.757Z,21.10
2023-05-01T10:53:47.469Z,20.60
2023-05-01T10:56:31.982Z,19.80
2023-05-01T10:59:03.520Z,20.80
2023-05-01T11:01:41.439Z,20.30
2023-05-01T11:04:28.153Z,20.50
2023-05-01T11:07:01.674Z,21.00
2023-05-01T11:09:48.410Z,20.90
2023-05-01T11:12:35.825Z,22.30
2023-05-01T11:15:03.501Z,21.70
2023-05-01T11:17:42.702Z,22.80
2023-05-01T11:20:11.335Z,22.50
2023-05-01T11:22:45.288Z,22.30
2023-05-01T11:25:25.833Z,21.80
2023-05-01T11:27:57.142Z,22.60
2023-05-01T11:30:23.734Z,22.20
2023-05-01T11:32:51.719Z,24.00
2023-05-01T11:35:26.441Z,23.50
2023-05-01T11:37:52.962Z,24.80
2023-05-01T11:40:27.719Z,25.50
2023-05-01T11:43:07.804Z,26.10
2023-05-01T11:45:36.625Z,26.70
2023-05-01T11:48:04.925Z,23.30
2023-05-01T11:50:32.377Z,24.10
2023-05-01T11:52:59.214Z,24.10
2023-05-01T11:55:35.166Z,25.20
2023-05-01T11:58:01.694Z,25.10
2023-05-01T12:00:30.152Z,24.70
2023-05-01T12:03:04.979Z,23.10
2023-05-01T12:05:32.571Z,24.10
2023-05-01T12:08:18.925Z,23.80
2023-05-01T12:10:48.254Z,24.70
2023-05-01T12:13:15.767Z,20.70
2023-05-01T12:15:47.303Z,21.60
2023-05-01T12:18:15.018Z,21.10
2023-05-01T12:20:42.682Z,23.40
2023-05-01T12:23:11.145Z,23.20
2023-05-01T12:25:39.158Z,25.20
2023-05-01T12:28:23.958Z,24.80
2023-05-01T12:30:50.472Z,25.10
2023-05-01T12:33:19.447Z,26.70
2023-05-01T12:35:48.721Z,27.20
2023-05-01T12:38:19.143Z,26.40
2023-05-01T12:40:55.218Z,26.10
2023-05-01T12:43:29.738Z,26.10
2023-05-01T12:45:56.685Z,28.80
2023-05-01T12:48:24.018Z,28.60
2023-05-01T12:50:51.613Z,25.60
2023-05-01T12:53:18.603Z,26.60
2023-05-01T12:55:46.636Z,26.50
2023-05-01T12:58:13.380Z,30.10
2023-05-01T13:00:44.972Z,31.20
2023-05-01T13:03:12.214Z,31.70
2023-05-01T13:05:50.919Z,31.50
2023-05-01T13:08:40.969Z,32.80
2023-05-01T13:11:16.124Z,31.80
2023-05-01T13:13:46.861Z,32.00
2023-05-01T13:16:15.347Z,29.80
2023-05-01T13:18:47.537Z,26.70
2023-05-01T13:21:20.351Z,27.00
2023-05-01T13:24:01.062Z,31.60
2023-05-01T13:26:28.468Z,33.00
2023-05-01T13:28:56.071Z,36.50
2023-05-01T13:31:22.678Z,32.10
2023-05-01T13:33:54.126Z,32.60
2023-05-01T13:36:26.776Z,32.60
2023-05-01T13:38:56.406Z,35.30
2023-05-01T13:41:25.199Z,29.90
2023-05-01T13:43:53.497Z,33.80
2023-05-01T13:46:22.270Z,41.80
2023-05-01T13:48:49.254Z,42.60
2023-05-01T13:51:22.419Z,43.90
2023-05-01T13:53:49.007Z,43.60
2023-05-01T13:56:15.872Z,43.30
2023-05-01T13:58:42.460Z,41.90
2023-05-01T14:01:17.227Z,45.40
2023-05-01T14:03:44.250Z,40.80
2023-05-01T14:06:14.506Z,37.40
2023-05-01T14:08:41.406Z,40.70
2023-05-01T14:11:09.649Z,39.60
2023-05-01T14:13:36.329Z,40.60
2023-05-01T14:16:08.074Z,42.30
2023-05-01T14:18:34.570Z,43.50
2023-05-01T14:21:01.399Z,42.00
2023-05-01T14:23:28.725Z,36.00
2023-05-01T14:25:55.526Z,40.70
2023-05-01T14:28:22.008Z,41.20
2023-05-01T14:30:48.779Z,41.60
2023-05-01T14:33:15.679Z,41.30
2023-05-01T14:35:48.680Z,44.60
2023-05-01T14:38:16.777Z,45.40
2023-05-01T14:40:45.585Z,45.50
2023-05-01T14:43:20.401Z,45.30
2023-05-01T14:45:47.174Z,47.90
2023-05-01T14:48:25.584Z,49.20
2023-05-01T14:50:52.793Z,48.20
2023-05-01T14:53:19.608Z,49.30
2023-05-01T14:55:50.109Z,49.20
2023-05-01T14:58:16.957Z,50.40
2023-05-01T15:00:43.639Z,50.20
2023-05-01T15:03:10.656Z,50.50
2023-05-01T15:05:37.447Z,51.40
2023-05-01T15:08:03.992Z,53.60
2023-05-01T15:10:30.889Z,53.60
2023-05-01T15:12:57.333Z,55.30
2023-05-01T15:15:24.381Z,56.70
2023-05-01T15:17:50.865Z,51.10
2023-05-01T15:20:17.803Z,51.60
2023-05-01T15:22:44.584Z,50.30
2023-05-01T15:25:11.379Z,54.50
2023-05-01T15:27:37.860Z,58.60
2023-05-01T15:30:04.707Z,60.70
2023-05-01T15:32:31.408Z,61.80
2023-05-01T15:34:58.337Z,60.40
2023-05-01T15:37:25.790Z,61.40
2023-05-01T15:39:52.253Z,60.40
2023-05-01T15:42:19.391Z,60.90
2023-05-01T15:44:47.392Z,60.50
2023-05-01T15:47:14.257Z,60.70
2023-05-01T15:49:41.216Z,59.60
2023-05-01T15:52:07.843Z,58.60
2023-05-01T15:54:34.744Z,57.90
2023-05-01T15:57:01.443Z,58.70
2023-05-01T15:59:27.927Z,60.40
2023-05-01T16:01:54.914Z,61.00
2023-05-01T16:04:21.687Z,64.60
2023-05-01T16:06:48.417Z,61.10
2023-05-01T16:09:15.039Z,62.90
2023-05-01T16:11:41.911Z,60.30
2023-05-01T16:14:09.831Z,60.70
2023-05-01T16:16:37.572Z,58.30
2023-05-01T16:19:04.116Z,57.30
2023-05-01T16:21:30.577Z,58.00
2023-05-01T16:23:57.072Z,58.40
2023-05-01T16:26:28.366Z,58.40
2023-05-01T16:28:59.370Z,57.90
2023-05-01T16:31:27.425Z,58.30
2023-05-01T16:33:54.623Z,57.40
2023-05-01T16:36:21.134Z,55.70
2023-05-01T16:38:47.701Z,56.20
2023-05-01T16:41:16.362Z,58.30
2023-05-01T16:43:44.191Z,56.20
2023-05-01T16:46:12.577Z,56.20
2023-05-01T16:48:39.346Z,55.30
2023-05-01T16:51:06.311Z,54.50
2023-05-01T16:53:33.087Z,56.90
2023-05-01T16:55:59.973Z,55.20
2023-05-01T16:58:26.952Z,55.40
2023-05-01T17:00:54.860Z,55.70
2023-05-01T17:03:21.346Z,54.30
2023-05-01T17:05:48.101Z,54.60
2023-05-01T17:08:14.630Z,56.40
2023-05-01T17:10:41.092Z,56.10
2023-05-01T17:13:07.843Z,55.40
2023-05-01T17:15:34.683Z,54.70
2023-05-01T17:18:01.741Z,54.40
2023-05-01T17:20:28.187Z,55.40
2023-05-01T17:22:54.660Z,56.30
2023-05-01T17:25:21.143Z,55.80
2023-05-01T17:27:47.589Z,55.30
2023-05-01T17:30:14.374Z,55.20
2023-05-01T17:32:40.916Z,55.20
2023-05-01T17:35:07.902Z,55.90
2023-05-01T17:37:34.413Z,55.60
2023-05-01T17:40:01.248Z,54.90
2023-05-01T17:42:28.354Z,55.70
2023-05-01T17:44:54.802Z,56.40
2023-05-01T17:47:21.654Z,56.20
2023-05-01T17:49:48.636Z,56.90
2023-05-01T17:52:15.085Z,57.40
2023-05-01T17:54:41.982Z,57.20
2023-05-01T17:57:08.459Z,57.10
2023-05-01T17:59:34.906Z,57.30
2023-05-01T18:02:01.442Z,57.50
2023-05-01T18:04:28.048Z,57.80
2023-05-01T18:06:54.678Z,57.90
2023-05-01T18:09:21.426Z,58.20
2023-05-01T18:11:48.178Z,58.70
2023-05-01T18:14:14.622Z,58.70
2023-05-01T18:16:41.155Z,58.40
2023-05-01T18:19:07.996Z,58.50
2023-05-01T18:21:34.426Z,58.30
2023-05-01T18:24:01.048Z,57.80
2023-05-01T18:26:27.933Z,57.00
2023-05-01T18:28:54.545Z,57.00
2023-05-01T18:31:21.177Z,57.60
2023-05-01T18:33:47.629Z,57.70
2023-05-01T18:36:14.080Z,57.10
2023-05-01T18:38:40.544Z,58.00
2023-05-01T18:41:07.193Z,58.20
2023-05-01T18:43:33.643Z,57.30
2023-05-01T18:46:00.198Z,57.60
2023-05-01T18:48:27.295Z,57.30
2023-05-01T18:51:07.089Z,58.50
2023-05-01T18:53:35.910Z,58.50
2023-05-01T18:56:02.420Z,56.90
2023-05-01T18:58:29.363Z,57.50
2023-05-01T19:00:55.817Z,57.30
2023-05-01T19:03:22.746Z,57.70
2023-05-01T19:05:49.182Z,57.30
2023-05-01T19:08:16.098Z,56.80
2023-05-01T19:10:42.553Z,57.20
2023-05-01T19:13:09.341Z,57.50
2023-05-01T19:15:35.794Z,58.30
2023-05-01T19:18:02.278Z,57.90
2023-05-01T19:20:28.894Z,58.20
2023-05-01T19:22:55.385Z,57.00
2023-05-01T19:25:21.921Z,56.60
2023-05-01T19:27:48.354Z,55.10
2023-05-01T19:30:14.866Z,55.90
2023-05-01T19:32:41.344Z,56.40
2023-05-01T19:35:08.206Z,57.10
2023-05-01T19:37:34.868Z,56.50
2023-05-01T19:40:01.586Z,57.00
2023-05-01T19:42:28.542Z,55.50
2023-05-01T19:44:54.999Z,57.10
2023-05-01T19:47:21.500Z,57.40
2023-05-01T19:49:48.003Z,57.30
2023-05-01T19:52:14.432Z,58.30
2023-05-01T19:54:40.858Z,58.00
2023-05-01T19:57:07.301Z,58.10
2023-05-01T19:59:34.118Z,57.90
2023-05-01T20:02:01.497Z,57.00
2023-05-01T20:04:28.172Z,57.50
2023-05-01T20:06:54.838Z,57.60
2023-05-01T20:09:21.722Z,56.50
2023-05-01T20:11:48.180Z,57.60
2023-05-01T20:14:14.724Z,57.60
2023-05-01T20:16:41.287Z,56.80
2023-05-01T20:19:07.780Z,57.50
2023-05-01T20:21:34.210Z,56.90
2023-05-01T20:24:00.943Z,57.30
2023-05-01T20:26:27.384Z,56.80
2023-05-01T20:28:54.382Z,56.80
2023-05-01T20:31:21.229Z,56.70
2023-05-01T20:33:47.738Z,56.20
2023-05-01T20:36:14.599Z,56.90
2023-05-01T20:38:42.157Z,57.30
2023-05-01T20:41:09.152Z,56.60
2023-05-01T20:43:35.662Z,56.50
2023-05-01T20:46:02.143Z,56.50
2023-05-01T20:48:29.111Z,56.40
2023-05-01T20:50:55.597Z,57.10
2023-05-01T20:53:22.429Z,57.50
2023-05-01T20:55:49.016Z,58.40
2023-05-01T20:58:16.063Z,58.40
2023-05-01T21:00:44.980Z,58.20
2023-05-01T21:03:11.570Z,59.10
2023-05-01T21:05:38.113Z,59.00
2023-05-01T21:08:04.964Z,58.90
2023-05-01T21:10:31.409Z,59.10
2023-05-01T21:12:57.966Z,59.20
2023-05-01T21:15:24.643Z,59.00
2023-05-01T21:17:51.285Z,59.10
2023-05-01T21:20:34.123Z,59.10
2023-05-01T21:23:03.364Z,59.30
2023-05-01T21:25:30.106Z,59.50
2023-05-01T21:27:56.653Z,59.80
2023-05-01T21:30:32.609Z,59.90
2023-05-01T21:33:00.015Z,60.30
2023-05-01T21:35:28.287Z,60.60
2023-05-01T21:37:54.923Z,60.60
2023-05-01T21:40:21.781Z,60.60
2023-05-01T21:42:48.680Z,60.20
2023-05-01T21:45:19.109Z,59.50
2023-05-01T21:47:48.415Z,59.50
2023-05-01T21:50:17.163Z,59.50
2023-05-01T21:52:45.356Z,59.50
2023-05-01T21:55:25.776Z,60.60
2023-05-01T21:57:53.018Z,60.40
2023-05-01T22:00:20.657Z,60.40
2023-05-01T22:02:50.145Z,60.30
2023-05-01T22:05:19.304Z,61.20
2023-05-01T22:07:46.470Z,60.90
2023-05-01T22:10:15.211Z,60.60
2023-05-01T22:12:42.590Z,60.60
2023-05-01T22:15:11.157Z,60.90
2023-05-01T22:17:39.195Z,60.20
2023-05-01T22:20:06.910Z,60.90
2023-05-01T22:22:34.381Z,61.40
2023-05-01T22:25:00.830Z,61.50
2023-05-01T22:27:27.705Z,61.60
2023-05-01T22:29:54.143Z,61.00
2023-05-01T22:32:21.229Z,61.40
2023-05-01T22:34:48.018Z,61.70
2023-05-01T22:37:14.927Z,61.70
2023-05-01T22:39:41.361Z,61.50
2023-05-01T22:42:08.093Z,61.70
2023-05-01T22:44:34.555Z,61.80
2023-05-01T22:47:01.268Z,61.60
2023-05-01T22:49:28.271Z,61.80
2023-05-01T22:51:58.654Z,61.80
2023-05-01T22:54:25.647Z,61.30
2023-05-01T22:56:52.380Z,61.60
2023-05-01T22:59:20.017Z,61.60
2023-05-01T23:01:46.989Z,61.40
2023-05-01T23:04:13.838Z,61.80
2023-05-01T23:06:41.085Z,61.80
2023-05-01T23:09:07.681Z,61.40
2023-05-01T23:11:35.003Z,61.90
2023-05-01T23:14:01.711Z,61.90
2023-05-01T23:16:36.481Z,62.20
2023-05-01T23:19:03.488Z,62.30
2023-05-01T23:21:30.290Z,62.80
2023-05-01T23:23:56.745Z,62.40
2023-05-01T23:26:27.403Z,62.20
2023-05-01T23:28:54.575Z,62.10
2023-05-01T23:31:24.671Z,62.20
2023-05-01T23:33:51.954Z,62.10
2023-05-01T23:36:18.718Z,62.10
2023-05-01T23:38:46.374Z,61.30
2023-05-01T23:41:13.550Z,61.90
2023-05-01T23:43:40.466Z,61.50
2023-05-01T23:46:07.250Z,61.60
2023-05-01T23:48:34.587Z,61.40
2023-05-01T23:51:02.892Z,61.50
2023-05-01T23:53:29.720Z,61.60
2023-05-01T23:55:56.554Z,60.80
2023-05-01T23:58:23.646Z,61.30
